Terminal Aerodrome Forecast
Issued by NWS

Home | Current Version | Previous Version | Text Only | Print | Product List | Glossary On
Versions: 1 2 3 4 5 6 7 8 9 10 11 12 13 14 15 16 17 18 19 20 21 22 23 24 25 26 27 28 29 30 31
000
FTUS41 KCTP 270611 RRA
TAFBFD
TAF
KBFD 270611Z 2706/2806 16008KT 6SM -SHRA OVC004
     FM271200 19005KT 5SM BR OVC005
     FM271500 23005KT P6SM OVC010
     FM271800 26007KT P6SM BKN025 OVC050
     FM280000 VRB03KT 5SM BR OVC050=

USA.gov is the U.S. government's official web portal to all federal, state and local government web resources and services.